createdAt,value
2022-10-01T00:02:10.294Z,94.59
2022-10-01T00:04:40.304Z,94.33
2022-10-01T00:07:15.407Z,94.50
2022-10-01T00:09:44.524Z,94.48
2022-10-01T00:12:16.203Z,94.72
2022-10-01T00:14:45.319Z,94.53
2022-10-01T00:17:15.275Z,94.84
2022-10-01T00:19:43.935Z,94.57
2022-10-01T00:22:12.568Z,94.83
2022-10-01T00:24:41.305Z,94.50
2022-10-01T00:27:11.599Z,94.53
2022-10-01T00:29:44.675Z,94.89
2022-10-01T00:32:15.774Z,94.89
2022-10-01T00:34:45.238Z,94.95
2022-10-01T00:37:14.060Z,95.01
2022-10-01T00:39:42.783Z,94.99
2022-10-01T00:42:19.604Z,94.93
2022-10-01T00:44:49.674Z,94.65
2022-10-01T00:47:30.673Z,95.09
2022-10-01T00:50:07.268Z,95.08
2022-10-01T00:52:39.425Z,94.97
2022-10-01T00:55:12.045Z,94.99
2022-10-01T00:57:42.893Z,94.76
2022-10-01T01:00:13.678Z,94.83
2022-10-01T01:02:44.331Z,94.69
2022-10-01T01:05:13.835Z,94.63
2022-10-01T01:07:46.276Z,94.64
2022-10-01T01:10:18.039Z,95.08
2022-10-01T01:13:10.769Z,94.74
2022-10-01T01:15:45.421Z,94.66
2022-10-01T01:18:24.243Z,94.53
2022-10-01T01:21:18.405Z,94.73
2022-10-01T01:24:15.728Z,94.50
2022-10-01T01:27:00.028Z,94.79
2022-10-01T01:29:37.146Z,94.42
2022-10-01T01:32:14.958Z,94.71
2022-10-01T01:34:48.708Z,94.43
2022-10-01T01:37:21.019Z,94.31
2022-10-01T01:39:54.247Z,94.43
2022-10-01T01:42:28.071Z,94.49
2022-10-01T01:45:01.972Z,94.61
2022-10-01T01:47:34.486Z,94.74
2022-10-01T01:50:07.881Z,94.28
2022-10-01T01:52:37.065Z,94.82
2022-10-01T01:55:08.954Z,94.69
2022-10-01T01:57:42.366Z,94.67
2022-10-01T02:00:14.558Z,94.66
2022-10-01T02:02:49.256Z,94.33
2022-10-01T02:05:23.326Z,94.56
2022-10-01T02:08:12.879Z,94.40
2022-10-01T02:11:00.254Z,94.39
2022-10-01T02:13:41.527Z,94.56
2022-10-01T02:16:23.846Z,94.67
2022-10-01T02:19:00.599Z,94.83
2022-10-01T02:21:34.671Z,94.47
2022-10-01T02:24:10.404Z,94.49
2022-10-01T02:26:40.695Z,94.56
2022-10-01T02:29:14.147Z,94.63
2022-10-01T02:31:46.009Z,94.93
2022-10-01T02:34:20.269Z,95.07
2022-10-01T02:36:51.036Z,94.77
2022-10-01T02:39:22.206Z,94.91
2022-10-01T02:41:53.161Z,95.04
2022-10-01T02:44:24.978Z,95.02
2022-10-01T02:47:02.354Z,94.78
2022-10-01T02:49:33.979Z,95.02
2022-10-01T02:52:10.825Z,95.12
2022-10-01T02:54:46.878Z,95.15
2022-10-01T02:57:27.654Z,94.82
2022-10-01T03:00:00.357Z,95.02
2022-10-01T03:02:33.313Z,95.22
2022-10-01T03:05:02.279Z,95.43
2022-10-01T03:07:34.847Z,95.00
2022-10-01T03:10:04.029Z,95.01
2022-10-01T03:12:33.246Z,95.39
2022-10-01T03:15:02.955Z,95.10
2022-10-01T03:17:33.245Z,95.50
2022-10-01T03:20:02.227Z,95.58
2022-10-01T03:22:30.816Z,95.06
2022-10-01T03:24:59.593Z,95.44
2022-10-01T03:27:28.256Z,95.07
2022-10-01T03:29:56.917Z,95.67
2022-10-01T03:32:25.525Z,95.44
2022-10-01T03:34:55.794Z,95.37
2022-10-01T03:37:24.437Z,95.46
2022-10-01T03:39:52.974Z,95.48
2022-10-01T03:42:21.638Z,95.07
2022-10-01T03:44:50.308Z,95.65
2022-10-01T03:47:19.087Z,95.41
2022-10-01T03:49:47.687Z,95.70
2022-10-01T03:52:18.114Z,95.48
2022-10-01T03:54:46.904Z,95.40
2022-10-01T03:57:15.584Z,95.73
2022-10-01T03:59:44.334Z,95.76
2022-10-01T04:02:13.092Z,95.76
2022-10-01T04:04:42.074Z,95.26
2022-10-01T04:07:10.649Z,95.51
2022-10-01T04:09:40.788Z,95.44
2022-10-01T04:12:09.776Z,95.44
2022-10-01T04:14:38.487Z,95.58
2022-10-01T04:17:07.073Z,96.06
2022-10-01T04:19:35.854Z,95.59
2022-10-01T04:22:04.456Z,96.09
2022-10-01T04:24:33.442Z,95.76
2022-10-01T04:27:03.838Z,95.91
2022-10-01T04:29:34.739Z,95.63
2022-10-01T04:32:07.288Z,95.63
2022-10-01T04:34:45.986Z,95.79
2022-10-01T04:37:14.675Z,95.94
2022-10-01T04:39:43.205Z,95.84
2022-10-01T04:42:14.324Z,95.77
2022-10-01T04:44:43.113Z,95.76
2022-10-01T04:47:11.655Z,95.73
2022-10-01T04:49:41.041Z,96.09
2022-10-01T04:52:09.655Z,95.82
2022-10-01T04:54:38.381Z,95.75
2022-10-01T04:57:07.305Z,95.97
2022-10-01T04:59:37.369Z,96.14
2022-10-01T05:02:06.025Z,96.17
2022-10-01T05:04:34.628Z,96.17
2022-10-01T05:07:03.375Z,95.91
2022-10-01T05:09:31.957Z,96.05
2022-10-01T05:12:01.748Z,96.16
2022-10-01T05:14:30.448Z,95.59
2022-10-01T05:17:00.499Z,96.03
2022-10-01T05:19:30.815Z,95.85
2022-10-01T05:21:59.763Z,95.75
2022-10-01T05:24:29.412Z,96.10
2022-10-01T05:26:58.118Z,95.72
2022-10-01T05:29:26.724Z,96.13
2022-10-01T05:31:55.464Z,96.09
2022-10-01T05:34:25.595Z,95.57
2022-10-01T05:36:54.240Z,95.91
2022-10-01T05:39:22.895Z,96.03
2022-10-01T05:41:51.468Z,95.63
2022-10-01T05:44:19.954Z,95.54
2022-10-01T05:46:48.606Z,95.87
2022-10-01T05:49:17.978Z,96.05
2022-10-01T05:51:48.136Z,95.74
2022-10-01T05:54:19.893Z,95.99
2022-10-01T05:56:48.446Z,95.69
2022-10-01T05:59:16.945Z,95.93
2022-10-01T06:01:46.708Z,95.98
2022-10-01T06:04:15.055Z,95.57
2022-10-01T06:06:43.630Z,95.93
2022-10-01T06:09:13.694Z,95.85
2022-10-01T06:11:42.265Z,95.99
2022-10-01T06:14:10.977Z,95.51
2022-10-01T06:16:39.956Z,95.88
2022-10-01T06:19:08.769Z,95.65
2022-10-01T06:21:37.737Z,95.62
2022-10-01T06:24:06.934Z,95.72
2022-10-01T06:26:37.826Z,95.78
2022-10-01T06:29:06.445Z,95.68
2022-10-01T06:31:35.407Z,95.74
2022-10-01T06:34:04.186Z,95.78
2022-10-01T06:36:32.694Z,95.92
2022-10-01T06:39:01.343Z,96.02
2022-10-01T06:41:29.846Z,95.95
2022-10-01T06:43:59.780Z,95.80
2022-10-01T06:46:29.505Z,95.54
2022-10-01T06:48:58.104Z,96.02
2022-10-01T06:51:40.484Z,95.88
2022-10-01T06:54:09.315Z,95.97
2022-10-01T06:56:37.837Z,95.90
2022-10-01T06:59:08.024Z,96.10
2022-10-01T07:01:37.408Z,95.61
2022-10-01T07:04:06.454Z,95.90
2022-10-01T07:06:35.216Z,96.10
2022-10-01T07:09:03.999Z,95.97
2022-10-01T07:11:32.882Z,95.89
2022-10-01T07:14:01.767Z,95.56
2022-10-01T07:16:31.777Z,95.58
2022-10-01T07:19:00.599Z,95.90
2022-10-01T07:21:29.099Z,95.82
2022-10-01T07:23:57.769Z,95.94
2022-10-01T07:26:26.407Z,95.83
2022-10-01T07:28:55.423Z,95.46
2022-10-01T07:31:24.675Z,96.00
2022-10-01T07:33:59.958Z,96.06
2022-10-01T07:36:28.616Z,95.68
2022-10-01T07:38:57.248Z,95.79
2022-10-01T07:41:26.011Z,95.77
2022-10-01T07:43:54.589Z,95.85
2022-10-01T07:46:23.358Z,95.94
2022-10-01T07:48:52.008Z,95.87
2022-10-01T07:51:22.069Z,95.86
2022-10-01T07:53:51.127Z,96.01
2022-10-01T07:56:20.068Z,96.26
2022-10-01T07:58:48.986Z,96.19
2022-10-01T08:01:18.191Z,95.99
2022-10-01T08:03:50.533Z,96.23
2022-10-01T08:06:24.606Z,95.89
2022-10-01T08:08:55.967Z,96.55
2022-10-01T08:11:24.928Z,96.53
2022-10-01T08:13:56.159Z,96.26
2022-10-01T08:16:29.363Z,96.29
2022-10-01T08:18:58.146Z,96.46
2022-10-01T08:21:26.879Z,96.07
2022-10-01T08:23:56.952Z,96.09
2022-10-01T08:26:25.817Z,96.17
2022-10-01T08:28:54.379Z,96.17
2022-10-01T08:31:23.342Z,96.49
2022-10-01T08:33:52.239Z,96.57
2022-10-01T08:36:21.202Z,96.35
2022-10-01T08:38:50.428Z,96.25
2022-10-01T08:41:31.758Z,96.49
2022-10-01T08:44:02.938Z,96.39
2022-10-01T08:46:36.408Z,96.82
2022-10-01T08:49:13.418Z,96.43
2022-10-01T08:51:49.039Z,96.87
2022-10-01T08:54:29.227Z,96.65
2022-10-01T08:57:02.650Z,96.96
2022-10-01T08:59:43.945Z,96.91
2022-10-01T09:02:20.947Z,96.84
2022-10-01T09:04:56.703Z,96.68
2022-10-01T09:07:44.241Z,96.84
2022-10-01T09:10:29.303Z,96.97
2022-10-01T09:13:25.577Z,96.75
2022-10-01T09:16:03.215Z,97.10
2022-10-01T09:18:48.602Z,96.54
2022-10-01T09:21:21.259Z,97.01
2022-10-01T09:24:04.660Z,96.88
2022-10-01T09:26:35.381Z,96.96
2022-10-01T09:29:14.142Z,96.62
2022-10-01T09:31:47.600Z,96.80
2022-10-01T09:34:18.141Z,97.15
2022-10-01T09:36:58.397Z,97.06
2022-10-01T09:39:33.912Z,96.94
2022-10-01T09:42:02.638Z,97.17
2022-10-01T09:44:35.539Z,97.27
2022-10-01T09:47:04.291Z,97.14
2022-10-01T09:49:36.672Z,97.02
2022-10-01T09:52:11.907Z,97.59
2022-10-01T09:54:46.297Z,97.65
2022-10-01T09:57:24.387Z,97.30
2022-10-01T10:00:02.898Z,97.21
2022-10-01T10:02:39.346Z,97.41
2022-10-01T10:05:11.629Z,97.62
2022-10-01T10:07:45.629Z,97.38
2022-10-01T10:10:25.801Z,97.28
2022-10-01T10:13:01.170Z,97.73
2022-10-01T10:15:33.422Z,97.42
2022-10-01T10:18:10.311Z,97.60
2022-10-01T10:20:41.920Z,97.38
2022-10-01T10:23:15.473Z,97.16
2022-10-01T10:25:44.813Z,97.62
2022-10-01T10:28:24.032Z,97.68
2022-10-01T10:30:57.056Z,97.66
2022-10-01T10:33:27.716Z,97.42
2022-10-01T10:36:03.803Z,97.70
2022-10-01T10:38:35.335Z,97.40
2022-10-01T10:41:06.509Z,97.28
2022-10-01T10:43:38.431Z,97.26
2022-10-01T10:46:10.864Z,97.19
2022-10-01T10:48:44.792Z,97.46
2022-10-01T10:51:13.674Z,97.49
2022-10-01T10:53:45.663Z,97.42
2022-10-01T10:56:23.242Z,97.21
2022-10-01T10:58:54.253Z,96.99
2022-10-01T11:01:29.827Z,97.14
2022-10-01T11:04:01.765Z,97.21
2022-10-01T11:06:30.647Z,97.19
2022-10-01T11:09:05.236Z,96.74
2022-10-01T11:11:51.575Z,96.98
2022-10-01T11:14:30.581Z,97.04
2022-10-01T11:17:21.203Z,96.45
2022-10-01T11:20:04.220Z,96.83
2022-10-01T11:22:47.683Z,96.61
2022-10-01T11:25:27.101Z,96.39
2022-10-01T11:28:05.063Z,96.53
2022-10-01T11:30:42.701Z,96.63
2022-10-01T11:33:30.171Z,96.11
2022-10-01T11:36:04.722Z,96.07
2022-10-01T11:38:54.344Z,96.05
2022-10-01T11:41:33.838Z,96.41
2022-10-01T11:44:09.561Z,96.17
2022-10-01T11:46:48.996Z,95.99
2022-10-01T11:49:30.724Z,96.01
2022-10-01T11:52:09.904Z,96.03
2022-10-01T11:54:53.132Z,96.31
2022-10-01T11:57:35.883Z,96.17
2022-10-01T12:00:09.054Z,96.28
2022-10-01T12:02:52.030Z,95.79
2022-10-01T12:05:26.469Z,96.04
2022-10-01T12:08:07.274Z,95.95
2022-10-01T12:10:42.113Z,95.84
2022-10-01T12:13:23.003Z,95.32
2022-10-01T12:15:57.713Z,95.39
2022-10-01T12:18:32.330Z,95.66
2022-10-01T12:21:08.180Z,95.43
2022-10-01T12:23:51.904Z,95.32
2022-10-01T12:26:30.553Z,95.08
2022-10-01T12:29:12.313Z,94.97
2022-10-01T12:31:50.973Z,95.31
2022-10-01T12:34:30.361Z,94.75
2022-10-01T12:37:12.952Z,94.77
2022-10-01T12:39:57.895Z,94.74
2022-10-01T12:42:44.103Z,95.03
2022-10-01T12:45:29.433Z,95.14
2022-10-01T12:48:08.813Z,94.61
2022-10-01T12:50:48.651Z,94.81
2022-10-01T12:53:33.779Z,94.82
2022-10-01T12:56:17.690Z,94.70
2022-10-01T12:59:07.610Z,94.54
2022-10-01T13:01:52.993Z,94.13
2022-10-01T13:04:43.883Z,93.82
2022-10-01T13:07:36.862Z,93.74
2022-10-01T13:10:23.212Z,93.46
2022-10-01T13:13:02.061Z,93.04
2022-10-01T13:15:35.371Z,92.64
2022-10-01T13:18:14.774Z,92.36
2022-10-01T13:20:54.487Z,92.24
2022-10-01T13:23:31.031Z,92.56
2022-10-01T13:26:07.082Z,92.09
2022-10-01T13:28:58.250Z,91.95
2022-10-01T13:31:39.460Z,91.79
2022-10-01T13:34:30.232Z,91.91
2022-10-01T13:36:58.795Z,91.95
2022-10-01T13:39:38.950Z,91.66
2022-10-01T13:42:19.976Z,91.69
2022-10-01T13:44:58.523Z,91.86
2022-10-01T13:47:28.065Z,91.29
2022-10-01T13:50:01.174Z,91.77
2022-10-01T13:52:30.473Z,91.45
2022-10-01T13:55:01.099Z,91.66
2022-10-01T13:57:36.555Z,91.63
2022-10-01T14:00:23.157Z,91.46
2022-10-01T14:03:06.037Z,91.99
2022-10-01T14:05:40.797Z,91.55
2022-10-01T14:08:19.335Z,91.72
2022-10-01T14:11:03.893Z,91.98
2022-10-01T14:13:47.174Z,91.60
2022-10-01T14:16:17.947Z,91.91
2022-10-01T14:18:50.866Z,92.13
2022-10-01T14:21:33.693Z,92.20
2022-10-01T14:24:12.853Z,92.02
2022-10-01T14:26:52.884Z,92.41
2022-10-01T14:29:43.391Z,92.22
2022-10-01T14:32:24.915Z,92.27
2022-10-01T14:35:07.346Z,92.40
2022-10-01T14:37:39.835Z,92.51
2022-10-01T14:40:18.362Z,92.81
2022-10-01T14:42:59.374Z,92.89
2022-10-01T14:45:30.414Z,92.67
2022-10-01T14:48:03.755Z,92.94
2022-10-01T14:50:37.421Z,93.08
2022-10-01T14:53:08.935Z,93.32
2022-10-01T14:55:37.701Z,93.00
2022-10-01T14:58:06.502Z,93.14
2022-10-01T15:00:36.726Z,93.24
2022-10-01T15:03:13.495Z,93.38
2022-10-01T15:05:42.316Z,93.19
2022-10-01T15:08:16.984Z,93.27
2022-10-01T15:10:49.424Z,93.56
2022-10-01T15:13:25.972Z,93.66
2022-10-01T15:15:57.299Z,93.30
2022-10-01T15:18:27.351Z,93.38
2022-10-01T15:21:02.846Z,93.38
2022-10-01T15:23:33.508Z,93.15
2022-10-01T15:26:05.222Z,92.97
2022-10-01T15:28:36.971Z,93.33
2022-10-01T15:31:09.076Z,93.31
2022-10-01T15:33:40.602Z,93.35
2022-10-01T15:36:14.360Z,93.33
2022-10-01T15:38:45.565Z,93.60
2022-10-01T15:41:31.933Z,93.23
2022-10-01T15:44:04.800Z,92.97
2022-10-01T15:46:36.136Z,93.24
2022-10-01T15:49:20.235Z,93.21
2022-10-01T15:52:05.398Z,93.18
2022-10-01T15:54:34.715Z,93.46
2022-10-01T15:57:06.765Z,93.06
2022-10-01T15:59:37.388Z,93.41
2022-10-01T16:02:16.801Z,93.24
2022-10-01T16:04:46.020Z,93.18
2022-10-01T16:07:20.955Z,93.24
2022-10-01T16:09:53.508Z,93.66
2022-10-01T16:12:23.258Z,93.11
2022-10-01T16:15:02.107Z,93.27
2022-10-01T16:17:35.095Z,93.25
2022-10-01T16:20:35.248Z,93.51
2022-10-01T16:23:25.847Z,93.50
2022-10-01T16:25:54.607Z,93.80
2022-10-01T16:28:29.503Z,94.02
2022-10-01T16:30:58.558Z,93.81
2022-10-01T16:33:28.716Z,93.83
2022-10-01T16:36:11.127Z,93.64
2022-10-01T16:38:39.857Z,93.61
2022-10-01T16:41:08.435Z,93.84
2022-10-01T16:43:38.724Z,93.70
2022-10-01T16:46:07.608Z,94.01
2022-10-01T16:48:37.939Z,93.93
2022-10-01T16:51:07.315Z,93.94
2022-10-01T16:53:35.975Z,94.31
2022-10-01T16:56:05.217Z,94.66
2022-10-01T16:58:33.895Z,94.60
2022-10-01T17:01:08.074Z,94.43
2022-10-01T17:03:38.194Z,94.75
2022-10-01T17:06:07.163Z,94.47
2022-10-01T17:08:35.820Z,94.53
2022-10-01T17:11:06.329Z,95.01
2022-10-01T17:13:37.545Z,95.08
2022-10-01T17:16:07.498Z,95.07
2022-10-01T17:18:40.267Z,95.15
2022-10-01T17:21:10.886Z,95.20
2022-10-01T17:23:39.598Z,94.99
2022-10-01T17:26:09.570Z,95.62
2022-10-01T17:28:38.329Z,95.17
2022-10-01T17:31:08.950Z,95.35
2022-10-01T17:33:39.448Z,95.27
2022-10-01T17:36:10.661Z,95.38
2022-10-01T17:38:40.663Z,95.41
2022-10-01T17:41:09.319Z,95.48
2022-10-01T17:43:39.565Z,95.60
2022-10-01T17:46:08.453Z,96.00
2022-10-01T17:48:38.664Z,95.92
2022-10-01T17:51:09.490Z,95.70
2022-10-01T17:53:42.607Z,95.77
2022-10-01T17:56:15.860Z,95.91
2022-10-01T17:58:45.815Z,96.19
2022-10-01T18:01:17.412Z,96.17
2022-10-01T18:03:47.618Z,96.49
2022-10-01T18:06:16.562Z,96.27
2022-10-01T18:08:55.228Z,96.14
2022-10-01T18:11:26.521Z,96.39
2022-10-01T18:13:55.468Z,96.56
2022-10-01T18:16:24.864Z,96.26
2022-10-01T18:21:47.989Z,96.64
2022-10-01T18:24:17.373Z,96.27
2022-10-01T18:26:46.938Z,96.89
2022-10-01T18:29:20.069Z,96.23
2022-10-01T18:31:53.400Z,96.10
2022-10-01T18:34:31.600Z,96.62
2022-10-01T18:37:07.042Z,95.90
2022-10-01T18:39:42.591Z,95.82
2022-10-01T18:42:19.655Z,96.17
2022-10-01T18:44:53.538Z,96.07
2022-10-01T18:47:32.907Z,95.27
2022-10-01T18:50:17.349Z,95.39
2022-10-01T18:52:56.522Z,95.34
2022-10-01T18:55:42.040Z,95.22
2022-10-01T18:58:29.203Z,95.13
2022-10-01T19:01:09.056Z,95.12
2022-10-01T19:04:18.060Z,95.52
2022-10-01T19:07:03.040Z,95.04
2022-10-01T19:09:43.797Z,95.24
2022-10-01T19:12:37.308Z,94.67
2022-10-01T19:15:18.530Z,94.93
2022-10-01T19:17:58.871Z,94.21
2022-10-01T19:20:45.805Z,93.77
2022-10-01T19:23:31.447Z,93.72
2022-10-01T19:26:08.351Z,93.22
2022-10-01T19:28:56.591Z,92.15
2022-10-01T19:31:35.180Z,91.42
2022-10-01T19:34:11.091Z,90.98
2022-10-01T19:36:45.458Z,90.53
2022-10-01T19:39:24.029Z,90.21
2022-10-01T19:41:58.731Z,89.65
2022-10-01T19:44:34.131Z,88.92
2022-10-01T19:47:16.068Z,88.50
2022-10-01T19:49:49.039Z,88.39
2022-10-01T19:52:19.331Z,88.65
2022-10-01T19:54:55.457Z,88.71
2022-10-01T19:57:26.559Z,88.38
2022-10-01T19:59:57.471Z,88.82
2022-10-01T20:02:35.481Z,88.68
2022-10-01T20:05:09.040Z,88.79
2022-10-01T20:07:47.576Z,88.92
2022-10-01T20:10:26.992Z,89.04
2022-10-01T20:13:10.461Z,89.19
2022-10-01T20:15:48.491Z,89.47
2022-10-01T20:18:28.301Z,89.60
2022-10-01T20:21:10.985Z,89.83
2022-10-01T20:23:48.231Z,89.96
2022-10-01T20:26:32.547Z,90.08
2022-10-01T20:29:17.503Z,89.92
2022-10-01T20:31:53.034Z,90.00
2022-10-01T20:34:30.592Z,90.27
2022-10-01T20:37:11.694Z,90.10
2022-10-01T20:39:47.104Z,90.29
2022-10-01T20:42:24.102Z,90.42
2022-10-01T20:44:54.424Z,90.52
2022-10-01T20:47:29.603Z,90.39
2022-10-01T20:50:09.402Z,90.50
2022-10-01T20:52:47.387Z,90.92
2022-10-01T20:55:19.947Z,90.76
2022-10-01T20:57:53.523Z,90.87
2022-10-01T21:00:24.653Z,91.06
2022-10-01T21:02:58.623Z,90.86
2022-10-01T21:05:31.893Z,90.95
2022-10-01T21:08:04.601Z,91.30
2022-10-01T21:10:42.714Z,91.44
2022-10-01T21:13:20.755Z,91.42
2022-10-01T21:16:03.099Z,91.58
2022-10-01T21:18:44.733Z,91.56
2022-10-01T21:21:24.540Z,91.37
2022-10-01T21:24:08.386Z,91.58
2022-10-01T21:26:48.003Z,91.46
2022-10-01T21:29:24.562Z,91.37
2022-10-01T21:32:08.784Z,91.51
2022-10-01T21:34:50.904Z,91.41
2022-10-01T21:37:28.984Z,91.12
2022-10-01T21:40:05.759Z,91.24
2022-10-01T21:42:49.522Z,90.81
2022-10-01T21:45:26.530Z,90.64
2022-10-01T21:48:11.592Z,90.55
2022-10-01T21:50:51.653Z,90.58
2022-10-01T21:53:40.833Z,90.48
2022-10-01T21:56:25.361Z,90.63
2022-10-01T21:59:06.785Z,90.31
2022-10-01T22:01:55.103Z,90.49
2022-10-01T22:04:33.465Z,89.81
2022-10-01T22:07:11.714Z,89.60
2022-10-01T22:09:44.882Z,89.62
2022-10-01T22:12:15.070Z,89.05
2022-10-01T22:14:46.547Z,88.91
2022-10-01T22:17:21.630Z,87.96
2022-10-01T22:19:54.483Z,88.02
2022-10-01T22:22:27.133Z,87.09
2022-10-01T22:24:58.553Z,87.18
2022-10-01T22:27:33.457Z,87.11
2022-10-01T22:30:10.721Z,87.25
2022-10-01T22:32:47.593Z,87.04
2022-10-01T22:35:22.003Z,87.30
2022-10-01T22:37:55.172Z,87.36
2022-10-01T22:40:28.581Z,87.28
2022-10-01T22:43:02.757Z,87.29
2022-10-01T22:45:46.630Z,87.70
2022-10-01T22:48:35.992Z,87.49
2022-10-01T22:51:16.524Z,87.54
2022-10-01T22:54:03.571Z,86.80
2022-10-01T22:56:40.744Z,86.48
2022-10-01T22:59:26.934Z,86.28
2022-10-01T23:02:05.749Z,86.04
2022-10-01T23:04:49.326Z,86.30
2022-10-01T23:07:26.173Z,86.34
2022-10-01T23:10:02.094Z,86.48
2022-10-01T23:12:39.995Z,86.35
2022-10-01T23:15:22.133Z,86.19
2022-10-01T23:18:03.119Z,86.46
2022-10-01T23:20:37.728Z,86.19
2022-10-01T23:23:31.254Z,86.14
2022-10-01T23:26:23.035Z,85.54
2022-10-01T23:29:04.370Z,85.09
2022-10-01T23:31:38.301Z,85.23
2022-10-01T23:34:24.130Z,85.01
2022-10-01T23:37:06.347Z,85.32
2022-10-01T23:39:51.556Z,84.96
2022-10-01T23:42:36.232Z,85.06
2022-10-01T23:45:23.575Z,85.11
2022-10-01T23:48:00.018Z,85.48
2022-10-01T23:50:34.362Z,85.68
2022-10-01T23:53:14.474Z,85.74
2022-10-01T23:56:08.012Z,86.02
2022-10-01T23:58:44.962Z,86.04
